Startpagina
METAR-TAF:

METAR-TAF

Vliegvelden :

Aeropuerto Juan Mendoza

Oruro, Bolivia

breedte: 17-58S, lengte: 067-04W, hoogte: 3072 m

Actueel weer

Dit bericht is 12 uur en het 17 minuten geleden gemaakt, om 18:00 UTC
Wind 3 kt uit het noordwesten
Temperatuur 16°C
Vochtigheid 16%
Druk 1034 hPa
Zicht 10 km of meer

METAR: SLOR 151800Z 32003KT 9999 NSC 16/M10 Q1034

Tijdstip: 02:17 (06:17 UTC)


TAF: ontbreekt

Waarnemingen en weersverwachtingen van meer dan 4000 vliegvelden (METAR en TAF).

De beschikbare stations zijn de gele en rode punten op de kaart.

Ga met uw muis naar het station om de naam te zien.

Klik dan om waarnemingen en weersverwachtingen te zien.

kaart wijzigen: klik op de groene knoppen met een zwart kruis om in te zoomen, op de groene knop met een streepje om uit te zoomen of op de groene pijlen voor aangrenzende kaarten.


METAR-TAF: